Terminal Aerodrome Forecast
Issued by NWS Midland/Odessa, TX

Home | Current Version | Previous Version | Text Only | Print | Product List | Glossary On
Versions: 1 2 3 4 5 6 7 8 9 10 11 12 13 14 15 16 17 18 19 20 21 22 23 24 25 26 27
000
FTUS44 KMAF 251100
TAFMAF
TAF
KMAF 251140Z 2512/2612 16009KT P6SM BKN100
      TEMPO 2512/2516 VRB20G35KT 6SM -TSRA BR SCT020 BKN050CB
     FM251600 26011G19KT P6SM FEW050 SCT250
     FM260100 20010KT P6SM FEW250=

USA.gov is the U.S. government's official web portal to all federal, state and local government web resources and services.